sensor_id;sensor_type;location;lat;lon;timestamp;pressure;altitude;pressure_sealevel;temperature;humidity
58955;BME280;45815;52.334;5.024;2023-07-28T00:02:05;100513.72;;;18.79;100.00
58955;BME280;45815;52.334;5.024;2023-07-28T00:04:31;100504.19;;;18.65;100.00
58955;BME280;45815;52.334;5.024;2023-07-28T00:06:56;100514.72;;;18.71;100.00
58955;BME280;45815;52.334;5.024;2023-07-28T00:09:22;100504.09;;;18.71;100.00
58955;BME280;45815;52.334;5.024;2023-07-28T00:11:51;100493.53;;;18.68;100.00
58955;BME280;45815;52.334;5.024;2023-07-28T00:14:17;100503.25;;;18.69;100.00
58955;BME280;45815;52.334;5.024;2023-07-28T00:16:42;100496.09;;;18.71;100.00
58955;BME280;45815;52.334;5.024;2023-07-28T00:19:07;100504.00;;;18.74;100.00
58955;BME280;45815;52.334;5.024;2023-07-28T00:21:33;100496.91;;;18.75;100.00
58955;BME280;45815;52.334;5.024;2023-07-28T00:23:58;100502.16;;;18.80;100.00
58955;BME280;45815;52.334;5.024;2023-07-28T00:26:24;100499.50;;;18.81;100.00
58955;BME280;45815;52.334;5.024;2023-07-28T00:28:49;100489.69;;;18.85;100.00
58955;BME280;45815;52.334;5.024;2023-07-28T00:31:14;100488.75;;;18.86;100.00
58955;BME280;45815;52.334;5.024;2023-07-28T00:33:40;100494.06;;;18.87;100.00
58955;BME280;45815;52.334;5.024;2023-07-28T00:36:05;100494.94;;;18.86;100.00
58955;BME280;45815;52.334;5.024;2023-07-28T00:38:31;100494.09;;;18.84;100.00
58955;BME280;45815;52.334;5.024;2023-07-28T00:40:57;100496.72;;;18.86;100.00
58955;BME280;45815;52.334;5.024;2023-07-28T00:43:24;100503.78;;;18.87;100.00
58955;BME280;45815;52.334;5.024;2023-07-28T00:45:49;100510.88;;;18.88;100.00
58955;BME280;45815;52.334;5.024;2023-07-28T00:48:16;100490.50;;;18.87;100.00
58955;BME280;45815;52.334;5.024;2023-07-28T00:50:44;100502.66;;;18.98;100.00
58955;BME280;45815;52.334;5.024;2023-07-28T00:53:11;100506.25;;;18.97;100.00
58955;BME280;45815;52.334;5.024;2023-07-28T00:55:37;100497.38;;;18.97;100.00
58955;BME280;45815;52.334;5.024;2023-07-28T00:58:03;100492.91;;;18.99;100.00
58955;BME280;45815;52.334;5.024;2023-07-28T01:00:29;100497.41;;;18.95;100.00
58955;BME280;45815;52.334;5.024;2023-07-28T01:02:55;100500.00;;;18.98;100.00
58955;BME280;45815;52.334;5.024;2023-07-28T01:05:26;100496.44;;;19.01;100.00
58955;BME280;45815;52.334;5.024;2023-07-28T01:08:01;100490.34;;;18.94;100.00
58955;BME280;45815;52.334;5.024;2023-07-28T01:10:31;100499.03;;;19.03;100.00
58955;BME280;45815;52.334;5.024;2023-07-28T01:12:57;100500.81;;;19.04;100.00
58955;BME280;45815;52.334;5.024;2023-07-28T01:15:23;100494.66;;;19.00;100.00
58955;BME280;45815;52.334;5.024;2023-07-28T01:17:49;100498.16;;;19.02;100.00
58955;BME280;45815;52.334;5.024;2023-07-28T01:20:16;100503.47;;;19.02;100.00
58955;BME280;45815;52.334;5.024;2023-07-28T01:25:28;100507.84;;;19.06;100.00
58955;BME280;45815;52.334;5.024;2023-07-28T01:27:55;100517.56;;;19.07;100.00
58955;BME280;45815;52.334;5.024;2023-07-28T01:30:21;100511.34;;;19.08;100.00
58955;BME280;45815;52.334;5.024;2023-07-28T01:32:51;100517.47;;;19.10;100.00
58955;BME280;45815;52.334;5.024;2023-07-28T01:35:16;100524.50;;;19.14;100.00
58955;BME280;45815;52.334;5.024;2023-07-28T01:37:41;100517.44;;;19.13;100.00
58955;BME280;45815;52.334;5.024;2023-07-28T01:40:07;100506.84;;;19.10;100.00
58955;BME280;45815;52.334;5.024;2023-07-28T01:42:33;100516.56;;;19.13;100.00
58955;BME280;45815;52.334;5.024;2023-07-28T01:44:58;100516.50;;;19.14;100.00
58955;BME280;45815;52.334;5.024;2023-07-28T01:47:24;100514.72;;;19.15;100.00
58955;BME280;45815;52.334;5.024;2023-07-28T01:49:50;100517.34;;;19.18;100.00
58955;BME280;45815;52.334;5.024;2023-07-28T01:52:16;100518.22;;;19.18;100.00
58955;BME280;45815;52.334;5.024;2023-07-28T01:54:41;100521.78;;;19.17;100.00
58955;BME280;45815;52.334;5.024;2023-07-28T01:57:06;100522.66;;;19.18;100.00
58955;BME280;45815;52.334;5.024;2023-07-28T01:59:32;100521.75;;;19.19;100.00
58955;BME280;45815;52.334;5.024;2023-07-28T02:01:57;100513.66;;;19.24;100.00
58955;BME280;45815;52.334;5.024;2023-07-28T02:04:23;100513.72;;;19.21;100.00
58955;BME280;45815;52.334;5.024;2023-07-28T02:06:49;100521.75;;;19.19;100.00
58955;BME280;45815;52.334;5.024;2023-07-28T02:09:14;100510.22;;;19.20;100.00
58955;BME280;45815;52.334;5.024;2023-07-28T02:11:39;100511.16;;;19.17;100.00
58955;BME280;45815;52.334;5.024;2023-07-28T02:14:05;100512.88;;;19.18;100.00
58955;BME280;45815;52.334;5.024;2023-07-28T02:16:30;100504.91;;;19.18;100.00
58955;BME280;45815;52.334;5.024;2023-07-28T02:18:57;100503.97;;;19.19;100.00
58955;BME280;45815;52.334;5.024;2023-07-28T02:21:22;100504.03;;;19.18;100.00
58955;BME280;45815;52.334;5.024;2023-07-28T02:23:48;100496.25;;;19.09;100.00
58955;BME280;45815;52.334;5.024;2023-07-28T02:26:14;100505.84;;;19.16;100.00
58955;BME280;45815;52.334;5.024;2023-07-28T02:28:39;100513.91;;;19.13;100.00
58955;BME280;45815;52.334;5.024;2023-07-28T02:31:05;100514.72;;;19.15;100.00
58955;BME280;45815;52.334;5.024;2023-07-28T02:33:30;100521.75;;;19.19;100.00
58955;BME280;45815;52.334;5.024;2023-07-28T02:35:57;100512.88;;;19.18;100.00
58955;BME280;45815;52.334;5.024;2023-07-28T02:38:23;100515.47;;;19.22;100.00
58955;BME280;45815;52.334;5.024;2023-07-28T02:40:48;100516.31;;;19.24;100.00
58955;BME280;45815;52.334;5.024;2023-07-28T02:43:14;100507.44;;;19.25;100.00
58955;BME280;45815;52.334;5.024;2023-07-28T02:45:39;100512.72;;;19.26;100.00
58955;BME280;45815;52.334;5.024;2023-07-28T02:48:05;100518.88;;;19.28;100.00
58955;BME280;45815;52.334;5.024;2023-07-28T02:50:30;100524.19;;;19.30;100.00
58955;BME280;45815;52.334;5.024;2023-07-28T02:52:56;100521.53;;;19.30;100.00
58955;BME280;45815;52.334;5.024;2023-07-28T02:55:21;100520.66;;;19.29;100.00
58955;BME280;45815;52.334;5.024;2023-07-28T02:57:47;100524.19;;;19.30;100.00
58955;BME280;45815;52.334;5.024;2023-07-28T03:00:12;100519.75;;;19.29;100.00
58955;BME280;45815;52.334;5.024;2023-07-28T03:02:39;100525.91;;;19.31;100.00
58955;BME280;45815;52.334;5.024;2023-07-28T03:05:05;100518.84;;;19.30;100.00
58955;BME280;45815;52.334;5.024;2023-07-28T03:08:03;100526.00;;;19.28;100.00
58955;BME280;45815;52.334;5.024;2023-07-28T03:10:29;100531.31;;;19.28;100.00
58955;BME280;45815;52.334;5.024;2023-07-28T03:12:55;100535.69;;;19.30;100.00
58955;BME280;45815;52.334;5.024;2023-07-28T03:15:21;100532.94;;;19.35;100.00
58955;BME280;45815;52.334;5.024;2023-07-28T03:17:50;100528.47;;;19.35;100.00
58955;BME280;45815;52.334;5.024;2023-07-28T03:20:16;100533.84;;;19.34;100.00
58955;BME280;45815;52.334;5.024;2023-07-28T03:22:42;100532.94;;;19.35;100.00
58955;BME280;45815;52.334;5.024;2023-07-28T03:25:08;100536.50;;;19.34;100.00
58955;BME280;45815;52.334;5.024;2023-07-28T03:27:33;100540.91;;;19.36;100.00
58955;BME280;45815;52.334;5.024;2023-07-28T03:29:59;100540.00;;;19.36;100.00
58955;BME280;45815;52.334;5.024;2023-07-28T03:32:25;100527.72;;;19.30;100.00
58955;BME280;45815;52.334;5.024;2023-07-28T03:34:50;100542.66;;;19.36;100.00
58955;BME280;45815;52.334;5.024;2023-07-28T03:37:18;100546.22;;;19.36;100.00
58955;BME280;45815;52.334;5.024;2023-07-28T03:39:44;100542.63;;;19.37;100.00
58955;BME280;45815;52.334;5.024;2023-07-28T03:42:10;100548.81;;;19.38;100.00
58955;BME280;45815;52.334;5.024;2023-07-28T03:44:36;100552.41;;;19.37;100.00
58955;BME280;45815;52.334;5.024;2023-07-28T03:47:03;100555.09;;;19.35;100.00
58955;BME280;45815;52.334;5.024;2023-07-28T03:49:29;100553.28;;;19.37;100.00
58955;BME280;45815;52.334;5.024;2023-07-28T03:51:54;100554.16;;;19.38;100.00
58955;BME280;45815;52.334;5.024;2023-07-28T03:54:20;100569.25;;;19.37;100.00
58955;BME280;45815;52.334;5.024;2023-07-28T03:56:45;100560.38;;;19.37;100.00
58955;BME280;45815;52.334;5.024;2023-07-28T03:59:11;100570.19;;;19.35;100.00
58955;BME280;45815;52.334;5.024;2023-07-28T04:01:36;100563.19;;;19.31;100.00
58955;BME280;45815;52.334;5.024;2023-07-28T04:04:01;100567.56;;;19.33;100.00
58955;BME280;45815;52.334;5.024;2023-07-28T04:06:39;100564.03;;;19.33;100.00
58955;BME280;45815;52.334;5.024;2023-07-28T04:09:06;100563.94;;;19.36;100.00
58955;BME280;45815;52.334;5.024;2023-07-28T04:11:32;100563.91;;;19.39;100.00
58955;BME280;45815;52.334;5.024;2023-07-28T04:13:57;100563.84;;;19.40;100.00
58955;BME280;45815;52.334;5.024;2023-07-28T04:16:23;100560.34;;;19.38;100.00
58955;BME280;45815;52.334;5.024;2023-07-28T04:18:49;100573.63;;;19.40;100.00
58955;BME280;45815;52.334;5.024;2023-07-28T04:21:14;100566.56;;;19.39;100.00
58955;BME280;45815;52.334;5.024;2023-07-28T04:23:39;100565.63;;;19.40;100.00
58955;BME280;45815;52.334;5.024;2023-07-28T04:26:06;100570.88;;;19.43;100.00
58955;BME280;45815;52.334;5.024;2023-07-28T04:28:31;100574.47;;;19.42;100.00
58955;BME280;45815;52.334;5.024;2023-07-28T04:30:58;100571.81;;;19.42;100.00
58955;BME280;45815;52.334;5.024;2023-07-28T04:33:46;100568.22;;;19.43;100.00
58955;BME280;45815;52.334;5.024;2023-07-28T04:36:12;100581.50;;;19.46;100.00
58955;BME280;45815;52.334;5.024;2023-07-28T04:38:37;100571.69;;;19.48;100.00
58955;BME280;45815;52.334;5.024;2023-07-28T04:41:03;100569.88;;;19.50;100.00
58955;BME280;45815;52.334;5.024;2023-07-28T04:43:49;100569.03;;;19.48;100.00
58955;BME280;45815;52.334;5.024;2023-07-28T04:46:15;100567.22;;;19.49;100.00
58955;BME280;45815;52.334;5.024;2023-07-28T04:48:43;100569.88;;;19.50;100.00
58955;BME280;45815;52.334;5.024;2023-07-28T04:51:28;100570.63;;;19.55;100.00
58955;BME280;45815;52.334;5.024;2023-07-28T04:54:27;100576.84;;;19.54;100.00
58955;BME280;45815;52.334;5.024;2023-07-28T04:56:53;100576.84;;;19.56;100.00
58955;BME280;45815;52.334;5.024;2023-07-28T04:59:24;100578.63;;;19.55;100.00
58955;BME280;45815;52.334;5.024;2023-07-28T05:01:49;100578.53;;;19.60;100.00
58955;BME280;45815;52.334;5.024;2023-07-28T05:04:15;100578.53;;;19.58;100.00
58955;BME280;45815;52.334;5.024;2023-07-28T05:06:40;100571.38;;;19.62;100.00
58955;BME280;45815;52.334;5.024;2023-07-28T05:09:05;100573.97;;;19.65;100.00
58955;BME280;45815;52.334;5.024;2023-07-28T05:11:33;100574.94;;;19.61;100.00
58955;BME280;45815;52.334;5.024;2023-07-28T05:13:59;100575.75;;;19.65;100.00
58955;BME280;45815;52.334;5.024;2023-07-28T05:16:24;100571.31;;;19.64;100.00
58955;BME280;45815;52.334;5.024;2023-07-28T05:19:06;100569.50;;;19.66;100.00
58955;BME280;45815;52.334;5.024;2023-07-28T05:21:44;100573.81;;;19.73;100.00
58955;BME280;45815;52.334;5.024;2023-07-28T05:24:12;100585.41;;;19.70;100.00
58955;BME280;45815;52.334;5.024;2023-07-28T05:26:37;100583.56;;;19.74;100.00
58955;BME280;45815;52.334;5.024;2023-07-28T05:29:03;100577.28;;;19.76;100.00
58955;BME280;45815;52.334;5.024;2023-07-28T05:31:28;100586.16;;;19.77;100.00
58955;BME280;45815;52.334;5.024;2023-07-28T05:33:54;100583.47;;;19.78;100.00
58955;BME280;45815;52.334;5.024;2023-07-28T05:36:20;100585.19;;;19.81;100.00
58955;BME280;45815;52.334;5.024;2023-07-28T05:38:46;100590.56;;;19.78;100.00
58955;BME280;45815;52.334;5.024;2023-07-28T05:41:12;100588.78;;;19.78;100.00
58955;BME280;45815;52.334;5.024;2023-07-28T05:43:37;100589.66;;;19.79;100.00
58955;BME280;45815;52.334;5.024;2023-07-28T05:46:03;100587.84;;;19.81;100.00
58955;BME280;45815;52.334;5.024;2023-07-28T05:48:32;100595.75;;;19.84;100.00
58955;BME280;45815;52.334;5.024;2023-07-28T05:50:58;100590.31;;;19.89;100.00
58955;BME280;45815;52.334;5.024;2023-07-28T05:53:23;100591.09;;;19.92;100.00
58955;BME280;45815;52.334;5.024;2023-07-28T05:55:53;100600.88;;;19.93;100.00
58955;BME280;45815;52.334;5.024;2023-07-28T05:58:18;100594.56;;;19.97;100.00
58955;BME280;45815;52.334;5.024;2023-07-28T06:00:44;100603.25;;;20.04;100.00
58955;BME280;45815;52.334;5.024;2023-07-28T06:03:21;100600.47;;;20.09;100.00
58955;BME280;45815;52.334;5.024;2023-07-28T06:05:57;100608.31;;;20.16;100.00
58955;BME280;45815;52.334;5.024;2023-07-28T06:08:22;100598.53;;;20.17;100.00
58955;BME280;45815;52.334;5.024;2023-07-28T06:10:48;100603.00;;;20.15;100.00
58955;BME280;45815;52.334;5.024;2023-07-28T06:13:14;100608.34;;;20.15;100.00
58955;BME280;45815;52.334;5.024;2023-07-28T06:15:40;100610.16;;;20.13;100.00
58955;BME280;45815;52.334;5.024;2023-07-28T06:18:05;100612.88;;;20.11;100.00
58955;BME280;45815;52.334;5.024;2023-07-28T06:20:31;100611.31;;;20.02;100.00
58955;BME280;45815;52.334;5.024;2023-07-28T06:22:57;100613.97;;;20.02;100.00
58955;BME280;45815;52.334;5.024;2023-07-28T06:25:22;100605.97;;;20.02;100.00
58955;BME280;45815;52.334;5.024;2023-07-28T06:27:48;100614.06;;;19.99;100.00
58955;BME280;45815;52.334;5.024;2023-07-28T06:30:13;100622.97;;;19.97;100.00
58955;BME280;45815;52.334;5.024;2023-07-28T06:32:39;100629.88;;;20.06;100.00
58955;BME280;45815;52.334;5.024;2023-07-28T06:35:05;100621.03;;;20.05;100.00
58955;BME280;45815;52.334;5.024;2023-07-28T06:37:33;100627.13;;;20.09;100.00
58955;BME280;45815;52.334;5.024;2023-07-28T06:39:59;100635.22;;;20.06;100.00
58955;BME280;45815;52.334;5.024;2023-07-28T06:42:25;100630.06;;;19.98;100.00
58955;BME280;45815;52.334;5.024;2023-07-28T06:44:55;100643.41;;;19.96;100.00
58955;BME280;45815;52.334;5.024;2023-07-28T06:47:22;100643.31;;;20.01;100.00
58955;BME280;45815;52.334;5.024;2023-07-28T06:49:48;100648.75;;;19.96;100.00
58955;BME280;45815;52.334;5.024;2023-07-28T06:52:13;100648.75;;;19.96;100.00
58955;BME280;45815;52.334;5.024;2023-07-28T06:54:39;100654.06;;;19.96;100.00
58955;BME280;45815;52.334;5.024;2023-07-28T06:57:06;100654.03;;;19.99;100.00
58955;BME280;45815;52.334;5.024;2023-07-28T06:59:32;100653.00;;;20.03;100.00
58955;BME280;45815;52.334;5.024;2023-07-28T07:01:57;100660.06;;;20.06;100.00
58955;BME280;45815;52.334;5.024;2023-07-28T07:04:24;100660.88;;;20.10;100.00
58955;BME280;45815;52.334;5.024;2023-07-28T07:06:49;100667.09;;;20.09;100.00
58955;BME280;45815;52.334;5.024;2023-07-28T07:09:14;100668.03;;;20.08;100.00
58955;BME280;45815;52.334;5.024;2023-07-28T07:11:40;100671.66;;;20.03;100.00
58955;BME280;45815;52.334;5.024;2023-07-28T07:14:06;100676.03;;;20.08;100.00
58955;BME280;45815;52.334;5.024;2023-07-28T07:16:32;100679.50;;;20.11;100.00
58955;BME280;45815;52.334;5.024;2023-07-28T07:18:58;100679.41;;;20.16;100.00
58955;BME280;45815;52.334;5.024;2023-07-28T07:21:23;100677.53;;;20.19;100.00
58955;BME280;45815;52.334;5.024;2023-07-28T07:23:49;100673.13;;;20.18;100.00
58955;BME280;45815;52.334;5.024;2023-07-28T07:26:26;100675.72;;;20.21;100.00
58955;BME280;45815;52.334;5.024;2023-07-28T07:28:52;100666.94;;;20.16;100.00
58955;BME280;45815;52.334;5.024;2023-07-28T07:31:18;100671.16;;;20.25;100.00
58955;BME280;45815;52.334;5.024;2023-07-28T07:33:44;100672.94;;;20.26;100.00
58955;BME280;45815;52.334;5.024;2023-07-28T07:36:13;100669.50;;;20.21;100.00
58955;BME280;45815;52.334;5.024;2023-07-28T07:38:39;100677.34;;;20.27;100.00
58955;BME280;45815;52.334;5.024;2023-07-28T07:41:06;100678.25;;;20.26;100.00
58955;BME280;45815;52.334;5.024;2023-07-28T07:43:32;100686.19;;;20.29;100.00
58955;BME280;45815;52.334;5.024;2023-07-28T07:45:57;100686.19;;;20.29;100.00
58955;BME280;45815;52.334;5.024;2023-07-28T07:48:23;100693.22;;;20.32;100.00
58955;BME280;45815;52.334;5.024;2023-07-28T07:50:48;100702.13;;;20.32;100.00
58955;BME280;45815;52.334;5.024;2023-07-28T07:53:14;100695.00;;;20.33;100.00
58955;BME280;45815;52.334;5.024;2023-07-28T07:55:39;100699.28;;;20.38;100.00
58955;BME280;45815;52.334;5.024;2023-07-28T07:58:04;100699.28;;;20.38;100.00
58955;BME280;45815;52.334;5.024;2023-07-28T08:00:30;100695.75;;;20.38;100.00
58955;BME280;45815;52.334;5.024;2023-07-28T08:02:55;100704.63;;;20.38;100.00
58955;BME280;45815;52.334;5.024;2023-07-28T08:05:21;100706.50;;;20.35;100.00
58955;BME280;45815;52.334;5.024;2023-07-28T08:07:46;100702.91;;;20.36;100.00
58955;BME280;45815;52.334;5.024;2023-07-28T08:10:12;100708.22;;;20.37;100.00
58955;BME280;45815;52.334;5.024;2023-07-28T08:12:38;100702.88;;;20.37;100.00
58955;BME280;45815;52.334;5.024;2023-07-28T08:15:04;100696.66;;;20.37;100.00
58955;BME280;45815;52.334;5.024;2023-07-28T08:17:29;100708.25;;;20.36;100.00
58955;BME280;45815;52.334;5.024;2023-07-28T08:19:55;100706.22;;;20.45;100.00
58955;BME280;45815;52.334;5.024;2023-07-28T08:22:20;100706.00;;;20.55;100.00
58955;BME280;45815;52.334;5.024;2023-07-28T08:24:45;100713.78;;;20.65;100.00
58955;BME280;45815;52.334;5.024;2023-07-28T08:27:11;100711.03;;;20.69;100.00
58955;BME280;45815;52.334;5.024;2023-07-28T08:29:36;100711.75;;;20.75;100.00
58955;BME280;45815;52.334;5.024;2023-07-28T08:32:02;100702.69;;;20.82;100.00
58955;BME280;45815;52.334;5.024;2023-07-28T08:34:27;100709.59;;;20.91;100.00
58955;BME280;45815;52.334;5.024;2023-07-28T08:36:53;100710.13;;;21.04;100.00
58955;BME280;45815;52.334;5.024;2023-07-28T08:39:18;100701.03;;;21.11;100.00
58955;BME280;45815;52.334;5.024;2023-07-28T08:41:44;100709.53;;;21.25;100.00
58955;BME280;45815;52.334;5.024;2023-07-28T08:44:09;100714.81;;;21.28;100.00
58955;BME280;45815;52.334;5.024;2023-07-28T08:46:35;100709.28;;;21.35;100.00
58955;BME280;45815;52.334;5.024;2023-07-28T08:49:01;100719.84;;;21.39;100.00
58955;BME280;45815;52.334;5.024;2023-07-28T08:51:26;100723.50;;;21.35;100.00
58955;BME280;45815;52.334;5.024;2023-07-28T08:53:52;100717.19;;;21.41;100.00
58955;BME280;45815;52.334;5.024;2023-07-28T08:56:18;100720.03;;;21.33;100.00
58955;BME280;45815;52.334;5.024;2023-07-28T08:58:44;100707.66;;;21.31;100.00
58955;BME280;45815;52.334;5.024;2023-07-28T09:01:10;100713.41;;;21.48;100.00
58955;BME280;45815;52.334;5.024;2023-07-28T09:03:39;100715.84;;;21.57;100.00
58955;BME280;45815;52.334;5.024;2023-07-28T09:06:06;100722.16;;;21.53;100.00
58955;BME280;45815;52.334;5.024;2023-07-28T09:08:35;100719.34;;;21.59;100.00
58955;BME280;45815;52.334;5.024;2023-07-28T09:11:02;100721.06;;;21.60;100.00
58955;BME280;45815;52.334;5.024;2023-07-28T09:13:36;100716.84;;;21.53;100.00
58955;BME280;45815;52.334;5.024;2023-07-28T09:16:01;100723.84;;;21.57;100.00
58955;BME280;45815;52.334;5.024;2023-07-28T09:18:27;100726.25;;;21.66;100.00
58955;BME280;45815;52.334;5.024;2023-07-28T09:20:53;100719.81;;;21.74;100.00
58955;BME280;45815;52.334;5.024;2023-07-28T09:23:27;100719.66;;;21.80;100.00
58955;BME280;45815;52.334;5.024;2023-07-28T09:25:59;100717.78;;;21.82;100.00
58955;BME280;45815;52.334;5.024;2023-07-28T09:28:36;100720.38;;;21.85;100.00
58955;BME280;45815;52.334;5.024;2023-07-28T09:31:03;100719.44;;;21.86;100.00
58955;BME280;45815;52.334;5.024;2023-07-28T09:33:31;100724.16;;;21.78;100.00
58955;BME280;45815;52.334;5.024;2023-07-28T09:35:57;100718.94;;;21.73;100.00
58955;BME280;45815;52.334;5.024;2023-07-28T09:38:24;100726.59;;;21.85;100.00
58955;BME280;45815;52.334;5.024;2023-07-28T09:40:53;100735.47;;;21.86;100.00
58955;BME280;45815;52.334;5.024;2023-07-28T09:43:19;100718.81;;;21.78;100.00
58955;BME280;45815;52.334;5.024;2023-07-28T09:45:45;100732.16;;;22.07;100.00
58955;BME280;45815;52.334;5.024;2023-07-28T09:48:11;100721.63;;;22.32;100.00
58955;BME280;45815;52.334;5.024;2023-07-28T09:50:40;100710.03;;;22.60;100.00
58955;BME280;45815;52.334;5.024;2023-07-28T09:53:08;100714.94;;;22.74;100.00
58955;BME280;45815;52.334;5.024;2023-07-28T09:55:35;100709.31;;;22.82;100.00
58955;BME280;45815;52.334;5.024;2023-07-28T09:58:05;100725.75;;;22.97;100.00
58955;BME280;45815;52.334;5.024;2023-07-28T10:00:33;100725.38;;;23.08;100.00
58955;BME280;45815;52.334;5.024;2023-07-28T10:03:02;100716.41;;;23.11;100.00
58955;BME280;45815;52.334;5.024;2023-07-28T10:05:28;100715.50;;;23.10;100.00
58955;BME280;45815;52.334;5.024;2023-07-28T10:07:54;100714.50;;;23.13;100.00
58955;BME280;45815;52.334;5.024;2023-07-28T10:10:20;100709.59;;;23.51;100.00
58955;BME280;45815;52.334;5.024;2023-07-28T10:12:48;100711.34;;;23.77;100.00
58955;BME280;45815;52.334;5.024;2023-07-28T10:15:19;100707.72;;;23.78;100.00
58955;BME280;45815;52.334;5.024;2023-07-28T10:17:54;100700.31;;;23.85;100.00
58955;BME280;45815;52.334;5.024;2023-07-28T10:20:36;100704.81;;;23.84;100.00
58955;BME280;45815;52.334;5.024;2023-07-28T10:23:04;100703.16;;;24.04;100.00
58955;BME280;45815;52.334;5.024;2023-07-28T10:25:33;100708.88;;;23.94;100.00
58955;BME280;45815;52.334;5.024;2023-07-28T10:27:59;100706.28;;;23.93;100.00
58955;BME280;45815;52.334;5.024;2023-07-28T10:30:24;100703.81;;;23.87;100.00
58955;BME280;45815;52.334;5.024;2023-07-28T10:32:50;100708.50;;;23.82;100.00
58955;BME280;45815;52.334;5.024;2023-07-28T10:37:47;100714.38;;;23.66;100.00
58955;BME280;45815;52.334;5.024;2023-07-28T10:42:55;100718.53;;;23.76;100.00
58955;BME280;45815;52.334;5.024;2023-07-28T10:45:26;100714.75;;;24.04;100.00
58955;BME280;45815;52.334;5.024;2023-07-28T10:47:56;100724.25;;;24.35;100.00
58955;BME280;45815;52.334;5.024;2023-07-28T10:50:26;100717.09;;;24.59;100.00
58955;BME280;45815;52.334;5.024;2023-07-28T10:52:52;100717.47;;;24.92;100.00
58955;BME280;45815;52.334;5.024;2023-07-28T10:55:20;100711.84;;;24.98;100.00
58955;BME280;45815;52.334;5.024;2023-07-28T10:57:47;100715.72;;;25.12;100.00
58955;BME280;45815;52.334;5.024;2023-07-28T11:00:16;100714.66;;;24.95;100.00
58955;BME280;45815;52.334;5.024;2023-07-28T11:02:46;100718.81;;;24.82;100.00
58955;BME280;45815;52.334;5.024;2023-07-28T11:05:18;100716.75;;;24.67;100.00
58955;BME280;45815;52.334;5.024;2023-07-28T11:07:44;100731.31;;;24.61;100.00
58955;BME280;45815;52.334;5.024;2023-07-28T11:10:10;100726.50;;;24.47;100.00
58955;BME280;45815;52.334;5.024;2023-07-28T11:12:41;100728.81;;;24.56;100.00
58955;BME280;45815;52.334;5.024;2023-07-28T11:15:12;100722.81;;;24.50;100.00
58955;BME280;45815;52.334;5.024;2023-07-28T11:17:43;100730.69;;;24.54;100.00
58955;BME280;45815;52.334;5.024;2023-07-28T11:20:16;100737.78;;;24.55;100.00
58955;BME280;45815;52.334;5.024;2023-07-28T11:22:45;100724.81;;;24.67;100.00
58955;BME280;45815;52.334;5.024;2023-07-28T11:25:12;100728.56;;;24.62;100.00
58955;BME280;45815;52.334;5.024;2023-07-28T11:27:38;100728.81;;;24.56;100.00
58955;BME280;45815;52.334;5.024;2023-07-28T11:30:05;100732.59;;;24.51;100.00
58955;BME280;45815;52.334;5.024;2023-07-28T11:32:34;100731.75;;;24.50;100.00
58955;BME280;45815;52.334;5.024;2023-07-28T11:35:08;100723.47;;;24.56;100.00
58955;BME280;45815;52.334;5.024;2023-07-28T11:37:38;100732.88;;;24.67;100.00
58955;BME280;45815;52.334;5.024;2023-07-28T11:40:05;100738.19;;;24.68;100.00
58955;BME280;45815;52.334;5.024;2023-07-28T11:42:47;100720.22;;;24.70;100.00
58955;BME280;45815;52.334;5.024;2023-07-28T11:45:15;100731.03;;;24.89;100.00
58955;BME280;45815;52.334;5.024;2023-07-28T11:50:23;100733.91;;;25.05;100.00
58955;BME280;45815;52.334;5.024;2023-07-28T11:52:49;100740.31;;;25.02;100.00
58955;BME280;45815;52.334;5.024;2023-07-28T11:55:14;100740.69;;;24.73;100.00
58955;BME280;45815;52.334;5.024;2023-07-28T11:57:43;100737.84;;;24.76;100.00
58955;BME280;45815;52.334;5.024;2023-07-28T12:00:09;100745.34;;;24.68;100.00
58955;BME280;45815;52.334;5.024;2023-07-28T12:02:34;100744.84;;;24.80;100.00
58955;BME280;45815;52.334;5.024;2023-07-28T12:05:00;100740.16;;;24.85;100.00
58955;BME280;45815;52.334;5.024;2023-07-28T12:07:30;100743.13;;;24.99;100.00
58955;BME280;45815;52.334;5.024;2023-07-28T12:09:56;100745.94;;;25.17;100.00
58955;BME280;45815;52.334;5.024;2023-07-28T12:12:30;100741.63;;;25.35;100.00
58955;BME280;45815;52.334;5.024;2023-07-28T12:14:57;100747.59;;;25.62;100.00
58955;BME280;45815;52.334;5.024;2023-07-28T12:17:29;100752.63;;;26.09;100.00
58955;BME280;45815;52.334;5.024;2023-07-28T12:20:00;100736.84;;;26.39;100.00
58955;BME280;45815;52.334;5.024;2023-07-28T12:22:27;100744.91;;;26.58;100.00
58955;BME280;45815;52.334;5.024;2023-07-28T12:24:53;100744.09;;;26.75;100.00
58955;BME280;45815;52.334;5.024;2023-07-28T12:27:19;100748.81;;;26.70;100.00
58955;BME280;45815;52.334;5.024;2023-07-28T12:29:49;100746.94;;;26.89;100.00
58955;BME280;45815;52.334;5.024;2023-07-28T12:32:14;100743.63;;;27.02;100.00
58955;BME280;45815;52.334;5.024;2023-07-28T12:34:39;100741.84;;;27.20;100.00
58955;BME280;45815;52.334;5.024;2023-07-28T12:37:06;100749.94;;;27.37;100.00
58955;BME280;45815;52.334;5.024;2023-07-28T12:39:31;100745.31;;;27.56;100.00
58955;BME280;45815;52.334;5.024;2023-07-28T12:41:58;100745.97;;;27.77;100.00
58955;BME280;45815;52.334;5.024;2023-07-28T12:44:23;100752.44;;;27.57;100.00
58955;BME280;45815;52.334;5.024;2023-07-28T12:46:49;100746.59;;;27.49;100.00
58955;BME280;45815;52.334;5.024;2023-07-28T12:49:15;100741.50;;;27.61;100.00
58955;BME280;45815;52.334;5.024;2023-07-28T12:51:40;100745.19;;;27.75;100.00